Terminal Aerodrome Forecast
Issued by NWS Twin Cities, MN

Home | Current Version | Previous Version | Graphics & Text | Print | Product List | Glossary On
Versions: 1 2 3 4 5 6 7 8 9 10 11 12 13 14 15 16 17 18 19 20 21 22 23 24 25 26 27
889
FTUS43 KMPX 222333
TAFMSP
TAF
KMSP 222333Z 2300/2406 31011KT P6SM SCT060
     FM230500 34005KT P6SM SCT030 BKN060
     FM231400 36009KT P6SM SCT020 OVC035 PROB30 2316/2322 -SHRA
      BKN025=

USA.gov is the U.S. government's official web portal to all federal, state and local government web resources and services.